Time;durP1;ratioP1;P1;durP2;ratioP2;P2;SDS_P1;SDS_P2;PMS_P1;PMS_P2;Temp;Humidity;BMP_temperature;BMP_pressure;BME280_temperature;BME280_humidity;BME280_pressure;Samples;Min_cycle;Max_cycle;Signal;HPM_P1;HPM_P2
2021/05/11 00:01:48;;;;;;;6.88;5.25;;;;;;;12.64;62.52;94103.88;5059206;28;20021;-87
2021/05/11 00:04:14;;;;;;;8.52;5.40;;;;;;;12.61;62.25;94110.53;5056337;28;20504;-87
2021/05/11 00:06:40;;;;;;;7.38;5.40;;;;;;;12.52;61.77;94091.09;5055603;28;20516;-88
2021/05/11 00:09:06;;;;;;;8.07;5.22;;;;;;;12.65;61.95;94110.78;5055240;28;20037;-86
2021/05/11 00:11:33;;;;;;;6.95;5.82;;;;;;;12.47;62.67;94091.97;5038887;28;20020;-86
2021/05/11 00:13:58;;;;;;;6.20;5.57;;;;;;;12.56;62.67;94100.81;5039844;28;20051;-88
2021/05/11 00:16:24;;;;;;;7.60;5.40;;;;;;;12.57;62.14;94118.31;5055724;28;20040;-88
2021/05/11 00:18:49;;;;;;;6.00;5.38;;;;;;;12.34;62.44;94099.91;5040798;28;20071;-87
2021/05/11 00:21:15;;;;;;;7.78;5.15;;;;;;;12.23;62.61;94086.03;5053903;28;20028;-88
2021/05/11 00:23:40;;;;;;;5.50;5.00;;;;;;;12.28;62.39;94103.72;5052114;28;20044;-89
2021/05/11 00:26:06;;;;;;;6.70;5.30;;;;;;;12.32;61.65;94097.53;5038490;28;20025;-88
2021/05/11 00:28:32;;;;;;;7.47;4.82;;;;;;;12.34;61.27;94111.31;5055873;28;20107;-89
2021/05/11 00:30:57;;;;;;;8.68;5.38;;;;;;;12.22;62.43;94091.66;5035486;28;20043;-88
2021/05/11 00:33:25;;;;;;;13.43;8.68;;;;;;;12.30;61.94;94098.94;5054123;28;20443;-87
2021/05/11 00:35:51;;;;;;;5.82;5.13;;;;;;;12.24;62.25;94095.56;5054643;28;20041;-87
2021/05/11 00:38:16;;;;;;;8.85;5.13;;;;;;;12.20;61.95;94086.63;5058129;28;20082;-88
2021/05/11 00:40:42;;;;;;;6.72;5.10;;;;;;;12.33;61.98;94103.63;5058132;28;20036;-88
2021/05/11 00:43:07;;;;;;;6.43;5.63;;;;;;;12.29;62.39;94107.94;5053814;28;20029;-88
2021/05/11 00:45:33;;;;;;;6.18;5.57;;;;;;;12.20;63.15;94089.28;5036615;28;20048;-88
2021/05/11 00:47:58;;;;;;;11.25;6.45;;;;;;;12.14;63.27;94087.78;5040604;28;20028;-87
2021/05/11 00:50:24;;;;;;;6.70;5.43;;;;;;;11.97;64.50;94079.63;5057010;28;20025;-87
2021/05/11 00:52:50;;;;;;;7.75;5.80;;;;;;;11.98;64.82;94091.75;5055553;28;20024;-86
2021/05/11 00:55:19;;;;;;;6.40;5.20;;;;;;;11.91;65.52;94094.00;5056467;28;20052;-87
2021/05/11 00:57:46;;;;;;;8.85;6.30;;;;;;;11.86;65.71;94083.50;5056812;28;20167;-86
2021/05/11 01:00:12;;;;;;;6.50;5.90;;;;;;;11.73;66.31;94080.50;5039997;28;20039;-87
2021/05/11 01:02:40;;;;;;;7.13;5.97;;;;;;;11.63;66.48;94070.03;5039411;28;20036;-87
2021/05/11 01:05:07;;;;;;;9.43;6.35;;;;;;;11.58;66.27;94082.56;5058628;28;20404;-88
2021/05/11 01:07:33;;;;;;;7.07;5.28;;;;;;;11.60;67.02;94085.69;5055307;28;20038;-87
2021/05/11 01:09:58;;;;;;;8.18;5.60;;;;;;;11.43;67.39;94062.41;5056195;28;20040;-87
2021/05/11 01:12:24;;;;;;;7.18;6.18;;;;;;;11.50;67.52;94080.56;5055243;28;20043;-88
2021/05/11 01:14:52;;;;;;;9.18;5.82;;;;;;;11.45;67.84;94080.63;5054313;28;20150;-87
2021/05/11 01:17:23;;;;;;;12.80;5.72;;;;;;;11.43;68.16;94085.44;5054973;28;20093;-87
2021/05/11 01:19:57;;;;;;;6.60;5.70;;;;;;;11.30;68.15;94065.75;5057910;28;20396;-88
2021/05/11 01:24:52;;;;;;;8.73;6.60;;;;;;;11.27;68.39;94071.63;5053362;28;20131;-86
2021/05/11 01:27:35;;;;;;;6.13;5.63;;;;;;;11.21;68.15;94062.19;5052830;28;20050;-88
2021/05/11 01:51:14;;;;;;;8.65;6.03;;;;;;;11.15;67.76;94053.53;5053970;28;20048;-87
2021/05/11 01:56:36;;;;;;;13.23;6.00;;;;;;;11.19;67.31;94070.38;5053838;28;20091;-89
2021/05/11 02:10:26;;;;;;;6.65;6.00;;;;;;;11.07;68.48;94051.53;5053608;28;20125;-87
2021/05/11 02:23:29;;;;;;;11.48;6.90;;;;;;;10.97;67.93;94046.38;5034711;28;20032;-87
2021/05/11 02:25:58;;;;;;;7.38;6.47;;;;;;;10.97;68.02;94042.94;5033655;28;20079;-88
2021/05/11 02:28:25;;;;;;;9.85;7.15;;;;;;;10.97;68.62;94050.88;5030984;28;20148;-86
2021/05/11 02:30:51;;;;;;;8.52;6.68;;;;;;;10.99;68.55;94048.72;5033009;28;20037;-87
2021/05/11 02:33:17;;;;;;;8.85;6.88;;;;;;;10.88;68.53;94036.69;5035483;28;20071;-85
2021/05/11 02:35:42;;;;;;;9.63;7.32;;;;;;;10.81;69.00;94032.53;5033833;28;20501;-87
2021/05/11 02:38:08;;;;;;;8.00;6.45;;;;;;;10.79;68.99;94029.41;5034862;28;20021;-87
2021/05/11 02:40:34;;;;;;;9.15;6.57;;;;;;;10.77;68.92;94036.81;5034990;28;20076;-87
2021/05/11 02:43:03;;;;;;;9.00;6.78;;;;;;;10.79;69.13;94039.19;5032171;28;20033;-86
2021/05/11 02:45:30;;;;;;;11.68;7.07;;;;;;;10.69;69.26;94034.03;5025242;28;20570;-87
2021/05/11 02:47:56;;;;;;;8.13;7.30;;;;;;;10.68;69.84;94049.09;5029113;28;20449;-87
2021/05/11 02:50:21;;;;;;;11.63;7.15;;;;;;;10.59;70.05;94040.22;5033101;28;20021;-88
2021/05/11 02:52:47;;;;;;;8.93;7.15;;;;;;;10.52;70.11;94042.41;5032203;28;20065;-87
2021/05/11 02:55:14;;;;;;;9.70;7.57;;;;;;;10.52;69.88;94045.06;5018936;28;20060;-86
2021/05/11 02:57:40;;;;;;;11.07;7.90;;;;;;;10.26;69.88;93996.22;5032772;28;20249;-88
2021/05/11 03:00:07;;;;;;;10.38;8.15;;;;;;;10.48;70.09;94037.97;5034063;28;20037;-87
2021/05/11 03:02:33;;;;;;;11.82;7.88;;;;;;;10.44;70.60;94043.03;5030563;28;20397;-86
2021/05/11 03:04:59;;;;;;;10.30;8.25;;;;;;;10.43;70.70;94041.47;5037037;28;20025;-88
2021/05/11 03:07:25;;;;;;;9.68;7.35;;;;;;;10.41;71.06;94046.22;5028993;28;20034;-87
2021/05/11 03:09:51;;;;;;;8.02;7.22;;;;;;;10.33;71.23;94036.28;5034011;28;20052;-88
2021/05/11 03:12:16;;;;;;;9.35;6.72;;;;;;;10.39;70.79;94045.72;5040524;28;20032;-87
2021/05/11 03:14:42;;;;;;;11.90;8.00;;;;;;;10.39;70.43;94032.53;5046661;28;20135;-87
2021/05/11 03:17:07;;;;;;;8.35;7.25;;;;;;;10.42;70.53;94026.66;5034799;28;20115;-87
2021/05/11 03:19:32;;;;;;;8.88;6.95;;;;;;;10.68;69.65;94033.25;5019614;28;20048;-87
2021/05/11 03:21:58;;;;;;;9.38;7.50;;;;;;;10.92;68.52;94027.13;5034184;28;20037;-88
2021/05/11 03:24:23;;;;;;;8.07;6.72;;;;;;;11.20;67.46;94023.56;5021959;28;20048;-87
2021/05/11 03:26:50;;;;;;;10.25;7.72;;;;;;;11.47;66.41;94036.94;5050040;28;20045;-84
2021/05/11 03:29:16;;;;;;;18.67;6.93;;;;;;;11.80;65.37;94027.19;5035514;28;20476;-88
2021/05/11 03:31:41;;;;;;;7.78;6.90;;;;;;;12.15;63.83;94031.09;5055878;28;20025;-87
2021/05/11 03:34:07;;;;;;;9.25;6.10;;;;;;;12.51;62.45;94032.00;5032040;28;20029;-88
2021/05/11 03:36:32;;;;;;;6.85;6.00;;;;;;;12.89;60.77;94032.59;5053288;28;20036;-88
2021/05/11 03:39:01;;;;;;;15.07;8.48;;;;;;;13.34;59.08;94027.41;5034094;28;20036;-88
2021/05/11 03:41:30;;;;;;;13.68;8.05;;;;;;;13.83;57.15;94029.16;5035732;28;20506;-88
2021/05/11 03:44:02;;;;;;;8.52;6.43;;;;;;;14.28;56.15;94019.28;5053592;28;20024;-86
2021/05/11 03:46:27;;;;;;;11.13;5.53;;;;;;;14.73;55.11;94019.97;5051566;28;20143;-88
2021/05/11 03:48:55;;;;;;;9.93;5.00;;;;;;;14.95;54.00;94011.91;5049397;28;20115;-85
2021/05/11 03:51:20;;;;;;;9.50;4.82;;;;;;;15.33;52.95;94021.97;5051577;28;20032;-88
2021/05/11 03:53:46;;;;;;;9.00;4.88;;;;;;;15.66;52.09;94028.44;5053467;28;20044;-87
2021/05/11 03:56:12;;;;;;;7.60;5.03;;;;;;;16.13;50.40;94025.84;5051143;28;20477;-88
2021/05/11 03:58:38;;;;;;;7.72;4.95;;;;;;;16.42;49.59;94015.25;5050771;28;20044;-86
2021/05/11 04:01:03;;;;;;;6.35;4.38;;;;;;;16.82;48.56;94019.22;5035645;28;20037;-83
2021/05/11 04:03:29;;;;;;;6.35;4.47;;;;;;;17.46;46.11;94024.31;5021168;28;20472;-85
2021/05/11 04:05:55;;;;;;;4.93;4.13;;;;;;;17.79;45.40;94002.25;5031831;28;20411;-84
2021/05/11 04:16:25;;;;;;;9.93;4.68;;;;;;;19.83;39.50;94012.66;5052455;28;20593;-85
2021/05/11 04:18:57;;;;;;;11.38;4.55;;;;;;;19.91;39.54;94014.41;5051951;28;20037;-86
2021/05/11 04:21:25;;;;;;;9.75;5.10;;;;;;;20.36;38.59;94021.38;5036329;28;20047;-86
2021/05/11 04:23:55;;;;;;;8.68;4.32;;;;;;;20.88;36.88;94003.13;5055303;28;20393;-85
2021/05/11 04:26:27;;;;;;;10.20;5.15;;;;;;;20.90;36.96;93998.19;5052725;28;20033;-85
2021/05/11 04:28:52;;;;;;;11.15;4.68;;;;;;;21.20;36.11;94013.88;5054156;28;20036;-85
2021/05/11 04:31:22;;;;;;;10.98;5.20;;;;;;;21.21;36.38;94026.19;5054749;28;20482;-85
2021/05/11 04:33:48;;;;;;;17.83;5.25;;;;;;;21.64;35.16;93991.03;5030354;28;20041;-85
2021/05/11 04:36:17;;;;;;;12.48;5.25;;;;;;;22.10;35.05;94012.72;5054631;28;20532;-86
2021/05/11 04:38:43;;;;;;;12.50;5.03;;;;;;;22.40;33.92;93994.81;5038003;28;20052;-86
2021/05/11 04:41:09;;;;;;;7.95;4.88;;;;;;;22.83;33.31;94002.53;5058648;28;20380;-85
2021/05/11 04:43:36;;;;;;;13.30;6.32;;;;;;;23.12;33.34;94005.66;5044396;28;20060;-85
2021/05/11 04:48:35;;;;;;;11.50;3.88;;;;;;;24.22;30.82;93999.88;5056976;28;20044;-85
2021/05/11 04:51:01;;;;;;;9.93;3.92;;;;;;;24.51;30.75;93995.53;5054162;28;20040;-86
2021/05/11 04:53:26;;;;;;;9.65;4.82;;;;;;;24.77;30.23;93981.91;5054822;28;20036;-85
2021/05/11 04:55:52;;;;;;;12.90;4.43;;;;;;;25.19;29.86;93992.28;5056969;28;20024;-86
2021/05/11 04:58:19;;;;;;;11.43;4.88;;;;;;;25.55;28.90;94000.69;5040013;28;20037;-85
2021/05/11 05:00:49;;;;;;;10.25;4.70;;;;;;;25.94;28.67;93998.19;5037990;28;20048;-86
2021/05/11 05:03:16;;;;;;;13.68;5.57;;;;;;;26.17;27.99;93980.47;5038616;28;20056;-86
2021/05/11 05:05:44;;;;;;;10.80;5.57;;;;;;;26.94;27.18;93989.16;5032450;28;20037;-86
2021/05/11 05:08:09;;;;;;;14.98;4.63;;;;;;;27.54;26.25;93983.72;5036159;28;20043;-85
2021/05/11 05:10:38;;;;;;;9.90;4.53;;;;;;;27.73;26.05;93990.66;5033255;28;20033;-86
2021/05/11 05:13:06;;;;;;;11.30;4.85;;;;;;;27.37;25.95;93981.78;5020203;28;20421;-87
2021/05/11 05:15:31;;;;;;;14.43;5.82;;;;;;;27.23;26.45;93985.28;5037007;28;20040;-86
2021/05/11 05:17:58;;;;;;;14.60;5.53;;;;;;;27.55;26.06;93986.06;5034561;28;20411;-85
2021/05/11 05:20:23;;;;;;;13.57;6.18;;;;;;;28.32;24.93;93980.75;5032654;28;20060;-85
2021/05/11 05:22:49;;;;;;;9.65;5.93;;;;;;;28.33;24.96;93990.47;5037030;28;20489;-86
2021/05/11 05:25:20;;;;;;;13.82;6.05;;;;;;;28.31;24.94;93981.94;5034483;28;20576;-86
2021/05/11 05:30:26;;;;;;;;;;;;;;;28.91;24.35;93986.25;5031377;28;20029;-87
2021/05/11 05:32:59;;;;;;;10.82;6.00;;;;;;;29.15;24.21;93990.72;5043713;28;19958;-87
2021/05/11 05:35:24;;;;;;;12.20;6.53;;;;;;;29.59;23.79;93981.81;5057471;28;20028;-86
2021/05/11 05:37:50;;;;;;;13.38;5.78;;;;;;;29.28;23.45;93983.59;5056796;28;20037;-86
2021/05/11 05:40:19;;;;;;;12.68;5.85;;;;;;;30.12;23.65;93971.09;5034640;28;20111;-86
2021/05/11 05:42:46;;;;;;;11.27;5.32;;;;;;;30.82;22.26;93965.91;5035191;28;20354;-86
2021/05/11 05:45:12;;;;;;;9.98;5.30;;;;;;;30.91;21.89;93974.34;5036598;28;20054;-87
2021/05/11 05:47:50;;;;;;;9.40;5.28;;;;;;;30.26;22.08;93964.69;5034897;28;20401;-88
2021/05/11 05:50:23;;;;;;;12.27;5.28;;;;;;;29.63;23.09;93964.25;5035738;28;20448;-86
2021/05/11 05:52:57;;;;;;;9.47;4.97;;;;;;;31.07;21.44;93978.41;5035744;28;20035;-87
2021/05/11 05:55:22;;;;;;;11.73;5.20;;;;;;;31.22;22.17;93985.19;5036733;28;20041;-86
2021/05/11 05:57:48;;;;;;;11.32;5.30;;;;;;;32.47;20.39;93971.53;5037180;28;20052;-87
2021/05/11 06:00:16;;;;;;;13.32;5.90;;;;;;;32.39;20.12;93969.38;5055523;28;20093;-87
2021/05/11 06:02:46;;;;;;;10.77;4.80;;;;;;;32.34;20.54;93967.91;5052196;28;20048;-87
2021/05/11 06:05:17;;;;;;;10.35;5.15;;;;;;;32.47;20.24;93971.53;5057486;28;20024;-87
2021/05/11 06:07:43;;;;;;;11.77;4.97;;;;;;;32.23;20.27;93979.06;5053399;28;20039;-87
2021/05/11 06:10:10;;;;;;;15.35;4.93;;;;;;;33.02;19.82;93964.47;5053983;28;20044;-90
2021/05/11 06:13:06;;;;;;;13.65;5.75;;;;;;;31.82;20.95;93973.22;5052861;28;20103;-90
2021/05/11 06:18:22;;;;;;;7.88;4.70;;;;;;;31.89;21.39;93970.34;5052800;28;20047;-88
2021/05/11 06:20:47;;;;;;;11.73;5.63;;;;;;;31.39;22.00;93975.91;5039967;28;20117;-87
2021/05/11 06:23:18;;;;;;;14.93;5.53;;;;;;;32.90;20.30;93962.41;5040544;28;20062;-84
2021/05/11 06:25:47;;;;;;;16.92;5.43;;;;;;;32.54;20.46;93967.88;5034947;28;20049;-87
2021/05/11 06:28:13;;;;;;;9.27;5.10;;;;;;;33.18;20.12;93969.22;5027261;28;20549;-86
2021/05/11 06:30:39;;;;;;;11.00;4.85;;;;;;;34.07;19.33;93959.44;5041538;28;20197;-87
2021/05/11 06:33:08;;;;;;;7.93;5.45;;;;;;;34.93;18.44;93964.78;5035749;28;20053;-86
2021/05/11 06:35:34;;;;;;;12.75;4.70;;;;;;;34.73;18.96;93962.25;5033020;28;20025;-85
2021/05/11 06:38:01;;;;;;;12.52;5.20;;;;;;;35.02;18.49;93967.63;5035802;28;20493;-88
2021/05/11 06:40:27;;;;;;;10.00;5.07;;;;;;;34.78;18.65;93974.69;5053539;28;20131;-86
2021/05/11 06:42:53;;;;;;;11.23;4.68;;;;;;;35.56;17.75;93961.97;5040051;28;20052;-87
2021/05/11 06:53:40;;;;;;;9.82;4.82;;;;;;;35.80;17.74;93972.56;5055096;28;20027;-86
2021/05/11 06:56:14;;;;;;;12.60;5.28;;;;;;;35.12;18.21;93960.25;5054591;28;20678;-87
2021/05/11 06:58:39;;;;;;;8.95;5.40;;;;;;;35.91;18.24;93964.72;5041091;28;20032;-81
2021/05/11 07:01:05;;;;;;;14.80;4.75;;;;;;;36.35;18.60;93960.03;5050357;28;20039;-80
2021/05/11 07:03:30;;;;;;;10.52;4.60;;;;;;;37.85;17.17;93955.66;5044290;28;20587;-80
2021/05/11 07:05:56;;;;;;;9.70;4.90;;;;;;;37.53;16.66;93945.97;5035572;28;20268;-80
2021/05/11 07:08:34;;;;;;;10.82;4.25;;;;;;;37.25;17.38;93947.91;5035010;28;20032;-81
2021/05/11 07:11:07;;;;;;;13.95;4.45;;;;;;;38.11;16.23;93957.69;5038513;28;20020;-82
2021/05/11 07:13:33;;;;;;;9.25;4.70;;;;;;;37.42;16.83;93951.94;5049850;28;20091;-80
2021/05/11 07:15:58;;;;;;;10.88;5.00;;;;;;;37.54;16.81;93958.53;5036112;28;20489;-80
2021/05/11 07:18:24;;;;;;;8.80;5.50;;;;;;;37.69;16.24;93959.47;5051416;28;20136;-82
2021/05/11 07:20:56;;;;;;;9.02;4.38;;;;;;;38.18;16.13;93956.59;5033715;28;20047;-81
2021/05/11 07:23:21;;;;;;;13.57;4.38;;;;;;;38.73;15.99;93951.75;5052495;28;20125;-80
2021/05/11 07:31:06;;;;;;;9.60;4.95;;;;;;;38.55;16.07;93946.28;5051853;28;20086;-80
2021/05/11 07:33:44;;;;;;;13.45;5.22;;;;;;;39.39;16.24;93947.00;5050321;28;20127;-80
2021/05/11 07:36:12;;;;;;;8.23;4.30;;;;;;;40.72;14.44;93942.53;5052723;28;20040;-81
2021/05/11 07:38:39;;;;;;;12.68;5.03;;;;;;;41.29;14.61;93934.63;5052386;28;20036;-81
2021/05/11 07:41:05;;;;;;;12.95;4.40;;;;;;;42.39;13.19;93938.50;5052893;28;20059;-81
2021/05/11 07:43:33;;;;;;;11.10;3.80;;;;;;;43.07;14.14;93942.16;5052208;28;20040;-81
2021/05/11 08:05:03;;;;;;;10.88;4.78;;;;;;;41.27;13.67;93923.25;5056428;28;20511;-80
2021/05/11 08:15:27;;;;;;;12.75;3.67;;;;;;;41.98;13.20;93910.03;5053024;28;20075;-81
2021/05/11 08:28:42;;;;;;;11.07;3.05;;;;;;;43.42;12.86;93911.25;5035981;28;20059;-80
2021/05/11 08:31:08;;;;;;;5.03;2.33;;;;;;;43.38;12.36;93915.53;5034808;28;20112;-82
2021/05/11 08:33:34;;;;;;;12.77;3.53;;;;;;;43.16;12.36;93900.25;5018511;28;20713;-79
2021/05/11 08:35:59;;;;;;;5.75;2.45;;;;;;;42.62;12.18;93912.44;5035842;28;20589;-81
2021/05/11 08:38:25;;;;;;;12.70;2.35;;;;;;;42.93;12.84;93906.13;5033679;28;20059;-80
2021/05/11 08:40:51;;;;;;;5.80;2.10;;;;;;;43.37;11.88;93916.78;5036640;28;20147;-84
2021/05/11 08:43:31;;;;;;;4.40;1.67;;;;;;;42.76;11.59;93914.38;5052489;28;20120;-85
2021/05/11 08:45:59;;;;;;;3.00;1.85;;;;;;;42.06;13.22;93900.78;5051478;28;20040;-80
2021/05/11 08:48:25;;;;;;;7.28;2.30;;;;;;;42.29;12.55;93904.56;5058002;28;20040;-83
2021/05/11 08:51:03;;;;;;;9.27;2.20;;;;;;;40.97;12.66;93908.69;5053585;28;20421;-81
2021/05/11 09:57:07;;;;;;;4.60;1.60;;;;;;;28.87;20.75;93849.50;5031634;28;20128;-80
2021/05/11 10:10:39;;;;;;;9.83;1.40;;;;;;;28.22;21.02;93853.88;5057555;28;20086;-81
2021/05/11 10:48:25;;;;;;;3.58;1.98;;;;;;;26.75;24.52;93824.91;5054203;28;20032;-83
2021/05/11 10:50:59;;;;;;;3.72;0.90;;;;;;;26.77;20.94;93811.75;5052878;28;20047;-82
2021/05/11 10:53:37;;;;;;;3.27;0.97;;;;;;;26.48;23.25;93821.09;5051504;28;20090;-83
2021/05/11 10:56:21;;;;;;;6.10;1.13;;;;;;;26.67;22.40;93821.44;5054816;28;20489;-84
2021/05/11 11:04:22;;;;;;;2.42;1.00;;;;;;;26.30;22.55;93811.00;5031604;28;20033;-83
2021/05/11 11:06:56;;;;;;;3.22;1.15;;;;;;;26.34;22.95;93811.00;5033854;28;20067;-81
2021/05/11 11:09:23;;;;;;;3.88;1.05;;;;;;;26.44;22.59;93804.81;5034579;28;20033;-85
2021/05/11 11:11:49;;;;;;;5.22;0.95;;;;;;;26.33;23.53;93787.03;5033450;28;20084;-83
2021/05/11 11:14:15;;;;;;;2.10;1.00;;;;;;;26.66;22.66;93805.56;5031991;28;20056;-81
2021/05/11 11:16:41;;;;;;;2.60;1.20;;;;;;;26.89;22.90;93792.38;5034264;28;20560;-81
2021/05/11 11:19:10;;;;;;;3.15;1.20;;;;;;;26.88;22.82;93790.81;5033454;28;20051;-81
2021/05/11 11:24:37;;;;;;;3.63;1.23;;;;;;;27.02;22.16;93771.81;5032657;28;20041;-84
2021/05/11 11:27:04;;;;;;;3.25;0.90;;;;;;;26.93;22.64;93771.44;5037754;28;20052;-83
2021/05/11 11:29:30;;;;;;;4.40;1.05;;;;;;;27.03;22.48;93776.06;5052198;28;20385;-83
2021/05/11 11:31:56;;;;;;;2.30;0.90;;;;;;;27.07;22.95;93773.34;5057864;28;20025;-82
2021/05/11 11:34:33;;;;;;;2.63;1.20;;;;;;;27.29;23.21;93771.31;5053871;28;20048;-81
2021/05/11 11:37:15;;;;;;;3.55;1.10;;;;;;;27.20;22.83;93779.09;5056877;28;20047;-83
2021/05/11 11:39:52;;;;;;;7.18;1.30;;;;;;;26.96;22.82;93776.09;5057878;28;20127;-82
2021/05/11 11:42:18;;;;;;;3.80;0.95;;;;;;;26.98;23.85;93775.69;5054129;28;20552;-80
2021/05/11 11:44:43;;;;;;;3.75;1.00;;;;;;;26.65;24.26;93763.34;5057889;28;20127;-80
2021/05/11 11:47:11;;;;;;;2.85;1.00;;;;;;;26.82;23.47;93769.91;5058609;28;20058;-81
2021/05/11 11:49:41;;;;;;;3.97;1.10;;;;;;;26.89;23.40;93770.69;5058025;28;20098;-81
2021/05/11 11:52:13;;;;;;;5.07;0.95;;;;;;;26.68;23.55;93763.34;5056544;28;20044;-80
2021/05/11 12:00:09;;;;;;;0.80;0.70;;;;;;;26.84;22.88;93743.94;5057816;28;20043;-80
2021/05/11 12:02:37;;;;;;;2.50;1.10;;;;;;;26.87;24.47;93755.97;5055807;28;20286;-81
2021/05/11 12:05:12;;;;;;;5.40;1.00;;;;;;;27.07;24.87;93746.97;5061032;28;20755;-84
2021/05/11 12:10:31;;;;;;;4.65;1.05;;;;;;;27.30;24.19;93745.72;5028601;28;20040;-83
2021/05/11 12:13:01;;;;;;;4.10;1.02;;;;;;;27.02;24.50;93738.50;5034367;28;20044;-82
2021/05/11 12:15:27;;;;;;;3.40;1.83;;;;;;;27.09;24.32;93720.25;5038483;28;20068;-81
2021/05/11 12:18:16;;;;;;;3.88;1.25;;;;;;;27.16;24.30;93730.31;5036954;28;20134;-82
2021/05/11 12:20:42;;;;;;;7.43;1.60;;;;;;;27.13;25.13;93715.56;5025357;28;20040;-89
2021/05/11 12:23:17;;;;;;;5.57;1.33;;;;;;;27.13;25.61;93710.16;5037770;28;20025;-88
2021/05/11 12:26:06;;;;;;;9.68;1.10;;;;;;;27.08;25.71;93707.84;5025296;28;20037;-88
2021/05/11 12:28:43;;;;;;;3.00;1.17;;;;;;;27.05;26.29;93708.66;5042451;28;20044;-88
2021/05/11 12:31:11;;;;;;;5.43;1.48;;;;;;;27.19;26.30;93707.03;5043728;28;20074;-87
2021/05/11 12:33:38;;;;;;;9.77;1.20;;;;;;;27.10;25.30;93716.38;5055225;28;20051;-83
2021/05/11 12:36:21;;;;;;;3.55;0.80;;;;;;;26.97;26.52;93700.94;5043279;28;20471;-89
2021/05/11 12:38:49;;;;;;;3.28;1.27;;;;;;;27.06;25.61;93695.84;5057478;28;20040;-88
2021/05/11 12:41:34;;;;;;;4.63;1.00;;;;;;;27.20;25.69;93693.06;5057877;28;20040;-87
2021/05/11 12:44:01;;;;;;;2.42;1.10;;;;;;;26.78;26.35;93687.81;5027177;28;20045;-81
2021/05/11 12:46:31;;;;;;;1.70;1.00;;;;;;;26.83;26.36;93693.59;5037639;28;20045;-82
2021/05/11 12:48:58;;;;;;;5.60;1.02;;;;;;;26.84;27.27;93695.13;5033158;28;20066;-83
2021/05/11 12:51:27;;;;;;;3.33;0.95;;;;;;;26.86;26.29;93684.72;5036813;28;20036;-81
2021/05/11 12:53:55;;;;;;;3.92;1.40;;;;;;;26.78;27.18;93688.56;5038007;28;20119;-83
2021/05/11 12:57:01;;;;;;;2.85;1.10;;;;;;;26.70;27.79;93681.63;5058001;28;20428;-80
2021/05/11 12:59:25;;;;;;;4.78;1.30;;;;;;;26.62;27.42;93677.41;5055919;28;20032;-85
2021/05/11 13:02:01;;;;;;;7.03;1.40;;;;;;;26.57;27.44;93673.16;5041402;28;20107;-82
2021/05/11 13:04:57;;;;;;;6.70;1.02;;;;;;;26.42;27.24;93687.16;5035732;28;20071;-83
2021/05/11 13:20:57;;;;;;;2.00;1.00;;;;;;;26.30;27.82;93672.84;5035528;28;20515;-82
2021/05/11 13:26:13;;;;;;;5.83;1.33;;;;;;;26.17;28.11;93666.28;5038494;28;20083;-82
2021/05/11 13:33:42;;;;;;;2.17;1.35;;;;;;;25.99;27.65;93654.69;5051775;28;20043;-87
2021/05/11 13:36:07;;;;;;;4.18;1.45;;;;;;;26.11;27.88;93656.97;5050783;28;20130;-84
2021/05/11 13:38:33;;;;;;;6.65;1.42;;;;;;;26.12;27.53;93669.38;5051254;28;20024;-83
2021/05/11 13:40:58;;;;;;;2.80;1.10;;;;;;;26.05;27.87;93658.53;5054928;28;20431;-83
2021/05/11 13:43:26;;;;;;;3.17;1.00;;;;;;;26.09;27.33;93647.72;5052692;28;20029;-83
2021/05/11 13:45:51;;;;;;;6.88;1.33;;;;;;;26.11;27.64;93640.72;5034922;28;20477;-83
2021/05/11 13:53:11;;;;;;;9.18;1.40;;;;;;;25.91;27.12;93650.44;5052073;28;20029;-81
2021/05/11 14:03:42;;;;;;;5.53;1.27;;;;;;;25.93;27.44;93639.22;5049270;28;20083;-83
2021/05/11 14:06:07;;;;;;;1.38;0.98;;;;;;;25.99;27.13;93649.28;5044945;28;20123;-83
2021/05/11 14:08:33;;;;;;;1.77;0.95;;;;;;;25.76;26.56;93638.06;5035199;28;20025;-82
2021/05/11 14:10:58;;;;;;;3.97;0.95;;;;;;;25.61;27.10;93631.88;5054268;28;20294;-83
2021/05/11 14:13:24;;;;;;;2.00;1.30;;;;;;;25.44;27.05;93636.13;5051706;28;20122;-85
2021/05/11 14:15:49;;;;;;;1.30;1.00;;;;;;;25.63;27.17;93626.88;5052785;28;20037;-83
2021/05/11 14:18:14;;;;;;;5.43;1.38;;;;;;;25.67;27.37;93633.03;5055931;28;20090;-82
2021/05/11 14:20:40;;;;;;;9.20;1.30;;;;;;;25.71;27.41;93624.91;5051164;28;20573;-83
2021/05/11 14:23:05;;;;;;;1.58;0.90;;;;;;;25.63;27.53;93621.47;5056201;28;20016;-82
2021/05/11 14:25:31;;;;;;;5.93;1.10;;;;;;;25.68;26.83;93614.88;5035880;28;20542;-84
2021/05/11 14:27:56;;;;;;;1.73;0.90;;;;;;;25.60;26.93;93626.88;5053071;28;20047;-80
2021/05/11 14:30:22;;;;;;;1.20;1.00;;;;;;;25.62;27.18;93611.00;5029642;28;20052;-82
2021/05/11 14:32:48;;;;;;;6.20;1.55;;;;;;;25.76;27.38;93621.81;5036003;28;20036;-83
2021/05/11 14:35:13;;;;;;;3.42;1.10;;;;;;;25.64;27.03;93617.59;5035229;28;20060;-81
2021/05/11 14:37:39;;;;;;;1.02;0.90;;;;;;;25.64;26.74;93619.53;5033673;28;20124;-83
2021/05/11 14:40:05;;;;;;;0.88;0.88;;;;;;;25.52;26.13;93604.41;5030160;28;20606;-83
2021/05/11 14:42:30;;;;;;;1.00;0.90;;;;;;;25.70;26.13;93612.56;5028779;28;20698;-81
2021/05/11 14:44:56;;;;;;;3.05;0.90;;;;;;;25.64;25.88;93627.66;5031961;28;20484;-82
2021/05/11 14:47:23;;;;;;;2.92;0.93;;;;;;;25.56;26.10;93618.00;5032513;28;20025;-83
2021/05/11 14:49:49;;;;;;;1.15;0.80;;;;;;;25.39;25.29;93616.78;5036094;28;20033;-85
2021/05/11 14:52:14;;;;;;;1.65;1.00;;;;;;;25.34;26.06;93607.13;5031588;28;20118;-82
2021/05/11 14:54:40;;;;;;;3.53;1.38;;;;;;;25.24;26.70;93616.00;5032152;28;20052;-83
2021/05/11 14:57:06;;;;;;;1.45;0.90;;;;;;;25.28;26.62;93605.19;5032720;28;20477;-82
2021/05/11 14:59:32;;;;;;;1.90;1.00;;;;;;;25.37;25.87;93603.63;5032018;28;20405;-84
2021/05/11 15:01:57;;;;;;;1.02;0.90;;;;;;;25.35;26.62;93592.44;5035845;28;20010;-83
2021/05/11 15:04:23;;;;;;;3.72;1.00;;;;;;;25.35;26.53;93594.38;5031494;28;20106;-84
2021/05/11 15:06:48;;;;;;;5.85;1.60;;;;;;;25.21;26.49;93594.38;5022995;28;20517;-84
2021/05/11 15:09:14;;;;;;;3.42;0.95;;;;;;;25.20;26.60;93590.88;5034122;28;20044;-82
2021/05/11 15:11:39;;;;;;;2.97;1.00;;;;;;;25.22;25.75;93595.91;5029848;28;20049;-81
2021/05/11 15:14:05;;;;;;;1.40;1.00;;;;;;;25.26;26.88;93583.19;5032915;28;20704;-82
2021/05/11 15:16:37;;;;;;;1.73;0.90;;;;;;;25.33;26.61;93581.22;5030045;28;20543;-81
2021/05/11 15:19:03;;;;;;;2.67;1.00;;;;;;;25.23;26.44;93578.53;5036548;28;20051;-84
2021/05/11 15:21:29;;;;;;;2.08;0.93;;;;;;;25.06;26.81;93577.34;5042941;28;20040;-82
2021/05/11 15:23:54;;;;;;;2.83;1.05;;;;;;;25.03;26.98;93578.88;5050204;28;20040;-83
2021/05/11 15:26:21;;;;;;;2.00;1.02;;;;;;;25.01;27.31;93583.94;5049813;28;20087;-84
2021/05/11 15:28:46;;;;;;;2.00;0.98;;;;;;;24.99;28.19;93578.13;5037679;28;20013;-83
2021/05/11 15:31:12;;;;;;;2.35;1.20;;;;;;;25.07;27.91;93570.78;5040735;28;20048;-82
2021/05/11 15:33:38;;;;;;;2.78;0.90;;;;;;;24.92;27.40;93569.22;5049739;28;20028;-81
2021/05/11 15:36:04;;;;;;;1.00;0.90;;;;;;;24.82;27.25;93562.63;5043330;28;20041;-83
2021/05/11 15:38:31;;;;;;;4.65;1.23;;;;;;;24.81;27.18;93565.69;5030744;28;20489;-83
2021/05/11 15:40:57;;;;;;;1.25;0.85;;;;;;;24.67;27.58;93566.44;5034866;28;20032;-82
2021/05/11 15:43:22;;;;;;;3.42;1.10;;;;;;;24.57;28.12;93567.97;5031826;28;20403;-82
2021/05/11 15:45:48;;;;;;;4.45;1.02;;;;;;;24.46;28.37;93569.06;5030578;28;20528;-82
2021/05/11 15:48:14;;;;;;;4.68;1.20;;;;;;;24.50;28.67;93567.94;5030972;28;20040;-82
2021/05/11 15:50:41;;;;;;;2.83;1.10;;;;;;;24.36;28.85;93562.50;5032419;28;21010;-83
2021/05/11 15:53:09;;;;;;;4.63;1.50;;;;;;;24.34;28.99;93564.78;5031799;28;20040;-83
2021/05/11 15:55:38;;;;;;;2.50;1.10;;;;;;;24.34;29.11;93564.00;5030533;28;20453;-83
2021/05/11 15:58:04;;;;;;;2.92;1.30;;;;;;;24.28;28.82;93560.94;5044347;28;20061;-83
2021/05/11 16:00:30;;;;;;;4.82;1.60;;;;;;;24.32;29.08;93559.00;5050136;28;20045;-83
2021/05/11 16:02:56;;;;;;;4.75;1.25;;;;;;;24.25;29.30;93569.00;5046609;28;20037;-84
2021/05/11 16:05:22;;;;;;;6.43;1.80;;;;;;;24.25;29.50;93569.75;5031502;28;20024;-86
2021/05/11 16:07:50;;;;;;;6.32;1.65;;;;;;;24.26;29.63;93563.22;5049950;28;20560;-84
2021/05/11 16:10:16;;;;;;;5.65;1.35;;;;;;;24.00;29.62;93579.63;5053571;28;20126;-82
2021/05/11 16:12:41;;;;;;;2.15;1.00;;;;;;;23.96;30.05;93560.72;5046434;28;20776;-82